sensor_id;sensor_type;location;lat;lon;timestamp;temperature;humidity
40538;DHT22;27925;41.874;12.526;2023-04-25T00:01:21;16.20;87.90
40538;DHT22;27925;41.874;12.526;2023-04-25T00:03:49;16.20;87.70
40538;DHT22;27925;41.874;12.526;2023-04-25T00:06:16;16.20;87.80
40538;DHT22;27925;41.874;12.526;2023-04-25T00:08:43;16.20;88.00
40538;DHT22;27925;41.874;12.526;2023-04-25T00:11:09;16.10;88.00
40538;DHT22;27925;41.874;12.526;2023-04-25T00:13:35;16.10;87.90
40538;DHT22;27925;41.874;12.526;2023-04-25T00:16:00;16.10;88.60
40538;DHT22;27925;41.874;12.526;2023-04-25T00:18:28;16.00;88.10
40538;DHT22;27925;41.874;12.526;2023-04-25T00:20:55;16.00;88.00
40538;DHT22;27925;41.874;12.526;2023-04-25T00:23:21;16.00;88.20
40538;DHT22;27925;41.874;12.526;2023-04-25T00:25:48;16.00;88.40
40538;DHT22;27925;41.874;12.526;2023-04-25T00:28:14;16.00;88.40
40538;DHT22;27925;41.874;12.526;2023-04-25T00:30:41;16.00;88.50
40538;DHT22;27925;41.874;12.526;2023-04-25T00:33:07;15.90;88.20
40538;DHT22;27925;41.874;12.526;2023-04-25T00:35:34;15.90;88.30
40538;DHT22;27925;41.874;12.526;2023-04-25T00:38:00;15.80;88.40
40538;DHT22;27925;41.874;12.526;2023-04-25T00:40:26;15.80;88.90
40538;DHT22;27925;41.874;12.526;2023-04-25T00:42:52;15.80;88.80
40538;DHT22;27925;41.874;12.526;2023-04-25T00:45:19;15.80;88.70
40538;DHT22;27925;41.874;12.526;2023-04-25T00:47:45;15.80;88.90
40538;DHT22;27925;41.874;12.526;2023-04-25T00:50:12;15.80;88.80
40538;DHT22;27925;41.874;12.526;2023-04-25T00:52:43;15.80;89.40
40538;DHT22;27925;41.874;12.526;2023-04-25T00:55:10;15.80;89.30
40538;DHT22;27925;41.874;12.526;2023-04-25T00:57:37;15.80;89.20
40538;DHT22;27925;41.874;12.526;2023-04-25T01:00:04;15.80;89.10
40538;DHT22;27925;41.874;12.526;2023-04-25T01:02:32;15.80;89.10
40538;DHT22;27925;41.874;12.526;2023-04-25T01:04:58;15.80;88.90
40538;DHT22;27925;41.874;12.526;2023-04-25T01:07:24;15.70;88.80
40538;DHT22;27925;41.874;12.526;2023-04-25T01:09:51;15.70;88.80
40538;DHT22;27925;41.874;12.526;2023-04-25T01:12:17;15.70;88.80
40538;DHT22;27925;41.874;12.526;2023-04-25T01:14:43;15.70;88.60
40538;DHT22;27925;41.874;12.526;2023-04-25T01:17:10;15.70;88.60
40538;DHT22;27925;41.874;12.526;2023-04-25T01:19:36;15.60;88.30
40538;DHT22;27925;41.874;12.526;2023-04-25T01:22:02;15.70;88.70
40538;DHT22;27925;41.874;12.526;2023-04-25T01:24:29;15.60;88.30
40538;DHT22;27925;41.874;12.526;2023-04-25T01:26:56;15.60;88.20
40538;DHT22;27925;41.874;12.526;2023-04-25T01:29:23;15.60;87.80
40538;DHT22;27925;41.874;12.526;2023-04-25T01:31:50;15.60;87.30
40538;DHT22;27925;41.874;12.526;2023-04-25T01:34:16;15.50;87.00
40538;DHT22;27925;41.874;12.526;2023-04-25T01:36:42;15.50;87.00
40538;DHT22;27925;41.874;12.526;2023-04-25T01:39:08;15.50;87.00
40538;DHT22;27925;41.874;12.526;2023-04-25T01:41:33;15.50;86.80
40538;DHT22;27925;41.874;12.526;2023-04-25T01:44:02;15.50;86.90
40538;DHT22;27925;41.874;12.526;2023-04-25T01:46:28;15.40;86.20
40538;DHT22;27925;41.874;12.526;2023-04-25T01:48:54;15.40;86.20
40538;DHT22;27925;41.874;12.526;2023-04-25T01:51:20;15.40;85.90
40538;DHT22;27925;41.874;12.526;2023-04-25T01:53:46;15.40;85.90
40538;DHT22;27925;41.874;12.526;2023-04-25T01:56:11;15.30;85.50
40538;DHT22;27925;41.874;12.526;2023-04-25T01:58:37;15.30;85.30
40538;DHT22;27925;41.874;12.526;2023-04-25T02:01:03;15.30;84.90
40538;DHT22;27925;41.874;12.526;2023-04-25T02:03:30;15.30;84.80
40538;DHT22;27925;41.874;12.526;2023-04-25T02:05:56;15.30;84.50
40538;DHT22;27925;41.874;12.526;2023-04-25T02:08:22;15.20;84.30
40538;DHT22;27925;41.874;12.526;2023-04-25T02:10:48;15.10;83.90
40538;DHT22;27925;41.874;12.526;2023-04-25T02:13:13;15.20;84.00
40538;DHT22;27925;41.874;12.526;2023-04-25T02:15:39;15.10;83.90
40538;DHT22;27925;41.874;12.526;2023-04-25T02:18:05;15.10;83.90
40538;DHT22;27925;41.874;12.526;2023-04-25T02:20:32;15.10;84.00
40538;DHT22;27925;41.874;12.526;2023-04-25T02:22:58;15.10;83.90
40538;DHT22;27925;41.874;12.526;2023-04-25T02:25:23;15.10;84.00
40538;DHT22;27925;41.874;12.526;2023-04-25T02:27:49;15.10;84.20
40538;DHT22;27925;41.874;12.526;2023-04-25T02:30:16;15.00;84.10
40538;DHT22;27925;41.874;12.526;2023-04-25T02:32:42;15.00;84.50
40538;DHT22;27925;41.874;12.526;2023-04-25T02:35:08;15.00;84.80
40538;DHT22;27925;41.874;12.526;2023-04-25T02:37:36;14.90;85.10
40538;DHT22;27925;41.874;12.526;2023-04-25T02:40:03;15.00;85.30
40538;DHT22;27925;41.874;12.526;2023-04-25T02:42:30;14.90;85.70
40538;DHT22;27925;41.874;12.526;2023-04-25T02:44:56;15.00;86.10
40538;DHT22;27925;41.874;12.526;2023-04-25T02:47:21;14.90;86.10
40538;DHT22;27925;41.874;12.526;2023-04-25T02:49:47;15.00;86.50
40538;DHT22;27925;41.874;12.526;2023-04-25T02:52:13;15.00;86.80
40538;DHT22;27925;41.874;12.526;2023-04-25T02:54:40;15.00;87.00
40538;DHT22;27925;41.874;12.526;2023-04-25T02:57:06;15.00;87.00
40538;DHT22;27925;41.874;12.526;2023-04-25T02:59:32;15.10;87.20
40538;DHT22;27925;41.874;12.526;2023-04-25T03:01:58;15.10;87.30
40538;DHT22;27925;41.874;12.526;2023-04-25T03:04:23;15.10;87.50
40538;DHT22;27925;41.874;12.526;2023-04-25T03:06:52;15.10;87.60
40538;DHT22;27925;41.874;12.526;2023-04-25T03:09:19;15.20;87.60
40538;DHT22;27925;41.874;12.526;2023-04-25T03:11:45;15.20;87.60
40538;DHT22;27925;41.874;12.526;2023-04-25T03:14:11;15.20;87.70
40538;DHT22;27925;41.874;12.526;2023-04-25T03:16:37;15.20;87.80
40538;DHT22;27925;41.874;12.526;2023-04-25T03:19:03;15.30;88.00
40538;DHT22;27925;41.874;12.526;2023-04-25T03:21:30;15.30;88.10
40538;DHT22;27925;41.874;12.526;2023-04-25T03:23:58;15.30;88.20
40538;DHT22;27925;41.874;12.526;2023-04-25T03:26:24;15.30;88.20
40538;DHT22;27925;41.874;12.526;2023-04-25T03:28:50;15.30;88.90
40538;DHT22;27925;41.874;12.526;2023-04-25T03:31:16;15.30;88.40
40538;DHT22;27925;41.874;12.526;2023-04-25T03:33:41;15.40;88.50
40538;DHT22;27925;41.874;12.526;2023-04-25T03:36:07;15.40;88.50
40538;DHT22;27925;41.874;12.526;2023-04-25T03:38:33;15.40;88.40
40538;DHT22;27925;41.874;12.526;2023-04-25T03:40:59;15.30;88.20
40538;DHT22;27925;41.874;12.526;2023-04-25T03:43:25;15.30;88.30
40538;DHT22;27925;41.874;12.526;2023-04-25T03:45:50;15.30;88.20
40538;DHT22;27925;41.874;12.526;2023-04-25T03:48:16;15.30;88.40
40538;DHT22;27925;41.874;12.526;2023-04-25T03:50:42;15.20;88.00
40538;DHT22;27925;41.874;12.526;2023-04-25T03:53:07;15.20;88.00
40538;DHT22;27925;41.874;12.526;2023-04-25T03:55:33;15.20;87.90
40538;DHT22;27925;41.874;12.526;2023-04-25T03:57:59;15.20;87.90
40538;DHT22;27925;41.874;12.526;2023-04-25T04:00:25;15.10;87.70
40538;DHT22;27925;41.874;12.526;2023-04-25T04:02:51;15.10;87.60
40538;DHT22;27925;41.874;12.526;2023-04-25T04:05:16;15.10;87.10
40538;DHT22;27925;41.874;12.526;2023-04-25T04:07:42;15.10;87.40
40538;DHT22;27925;41.874;12.526;2023-04-25T04:10:09;15.00;86.90
40538;DHT22;27925;41.874;12.526;2023-04-25T04:12:35;15.00;87.10
40538;DHT22;27925;41.874;12.526;2023-04-25T04:15:03;15.00;87.00
40538;DHT22;27925;41.874;12.526;2023-04-25T04:17:29;14.90;86.80
40538;DHT22;27925;41.874;12.526;2023-04-25T04:19:56;14.90;86.90
40538;DHT22;27925;41.874;12.526;2023-04-25T04:22:22;14.90;86.60
40538;DHT22;27925;41.874;12.526;2023-04-25T04:24:48;14.90;86.50
40538;DHT22;27925;41.874;12.526;2023-04-25T04:27:19;14.80;86.30
40538;DHT22;27925;41.874;12.526;2023-04-25T04:29:45;14.80;86.30
40538;DHT22;27925;41.874;12.526;2023-04-25T04:32:12;14.80;86.20
40538;DHT22;27925;41.874;12.526;2023-04-25T04:34:38;14.80;86.10
40538;DHT22;27925;41.874;12.526;2023-04-25T04:37:05;14.80;86.10
40538;DHT22;27925;41.874;12.526;2023-04-25T04:39:31;14.70;86.40
40538;DHT22;27925;41.874;12.526;2023-04-25T04:41:56;14.70;86.30
40538;DHT22;27925;41.874;12.526;2023-04-25T04:44:22;14.70;86.30
40538;DHT22;27925;41.874;12.526;2023-04-25T04:46:48;14.60;86.20
40538;DHT22;27925;41.874;12.526;2023-04-25T04:49:14;14.70;86.30
40538;DHT22;27925;41.874;12.526;2023-04-25T04:51:39;14.70;86.30
40538;DHT22;27925;41.874;12.526;2023-04-25T04:54:06;14.60;86.10
40538;DHT22;27925;41.874;12.526;2023-04-25T04:56:32;14.70;86.30
40538;DHT22;27925;41.874;12.526;2023-04-25T04:58:58;14.80;86.20
40538;DHT22;27925;41.874;12.526;2023-04-25T05:01:24;14.70;85.90
40538;DHT22;27925;41.874;12.526;2023-04-25T05:03:51;14.70;85.80
40538;DHT22;27925;41.874;12.526;2023-04-25T05:06:19;14.70;85.70
40538;DHT22;27925;41.874;12.526;2023-04-25T05:08:45;14.80;86.10
40538;DHT22;27925;41.874;12.526;2023-04-25T05:11:10;14.80;85.80
40538;DHT22;27925;41.874;12.526;2023-04-25T05:13:36;14.90;85.70
40538;DHT22;27925;41.874;12.526;2023-04-25T05:16:02;15.00;85.40
40538;DHT22;27925;41.874;12.526;2023-04-25T05:18:28;15.10;85.60
40538;DHT22;27925;41.874;12.526;2023-04-25T05:20:54;15.10;85.40
40538;DHT22;27925;41.874;12.526;2023-04-25T05:23:19;15.20;85.40
40538;DHT22;27925;41.874;12.526;2023-04-25T05:25:45;15.30;85.20
40538;DHT22;27925;41.874;12.526;2023-04-25T05:28:12;15.30;85.80
40538;DHT22;27925;41.874;12.526;2023-04-25T05:30:38;15.30;85.00
40538;DHT22;27925;41.874;12.526;2023-04-25T05:33:04;15.40;85.20
40538;DHT22;27925;41.874;12.526;2023-04-25T05:35:30;15.40;85.10
40538;DHT22;27925;41.874;12.526;2023-04-25T05:37:55;15.40;84.90
40538;DHT22;27925;41.874;12.526;2023-04-25T05:40:21;15.60;85.00
40538;DHT22;27925;41.874;12.526;2023-04-25T05:42:47;15.70;84.50
40538;DHT22;27925;41.874;12.526;2023-04-25T05:45:12;15.90;84.40
40538;DHT22;27925;41.874;12.526;2023-04-25T05:47:38;16.10;83.80
40538;DHT22;27925;41.874;12.526;2023-04-25T05:50:04;16.40;83.10
40538;DHT22;27925;41.874;12.526;2023-04-25T05:52:30;16.60;82.50
40538;DHT22;27925;41.874;12.526;2023-04-25T05:54:56;16.80;81.70
40538;DHT22;27925;41.874;12.526;2023-04-25T05:57:26;17.00;81.10
40538;DHT22;27925;41.874;12.526;2023-04-25T05:59:52;17.00;80.60
40538;DHT22;27925;41.874;12.526;2023-04-25T06:02:22;17.10;80.80
40538;DHT22;27925;41.874;12.526;2023-04-25T06:04:51;17.40;80.50
40538;DHT22;27925;41.874;12.526;2023-04-25T06:07:17;17.60;79.10
40538;DHT22;27925;41.874;12.526;2023-04-25T06:09:44;17.60;78.70
40538;DHT22;27925;41.874;12.526;2023-04-25T06:12:10;17.90;78.60
40538;DHT22;27925;41.874;12.526;2023-04-25T06:14:35;18.10;77.60
40538;DHT22;27925;41.874;12.526;2023-04-25T06:17:02;18.20;77.00
40538;DHT22;27925;41.874;12.526;2023-04-25T06:19:32;18.40;76.30
40538;DHT22;27925;41.874;12.526;2023-04-25T06:21:59;18.60;75.80
40538;DHT22;27925;41.874;12.526;2023-04-25T06:24:24;18.80;74.90
40538;DHT22;27925;41.874;12.526;2023-04-25T06:26:50;19.00;74.50
40538;DHT22;27925;41.874;12.526;2023-04-25T06:29:16;19.20;74.20
40538;DHT22;27925;41.874;12.526;2023-04-25T06:31:41;19.40;73.40
40538;DHT22;27925;41.874;12.526;2023-04-25T06:34:07;19.30;72.70
40538;DHT22;27925;41.874;12.526;2023-04-25T06:36:33;19.20;73.20
40538;DHT22;27925;41.874;12.526;2023-04-25T06:38:58;19.30;73.30
40538;DHT22;27925;41.874;12.526;2023-04-25T06:41:24;19.50;72.90
40538;DHT22;27925;41.874;12.526;2023-04-25T06:43:50;19.50;72.10
40538;DHT22;27925;41.874;12.526;2023-04-25T06:46:15;19.70;72.50
40538;DHT22;27925;41.874;12.526;2023-04-25T06:48:41;19.90;71.90
40538;DHT22;27925;41.874;12.526;2023-04-25T06:51:07;20.10;71.50
40538;DHT22;27925;41.874;12.526;2023-04-25T06:53:33;20.30;71.00
40538;DHT22;27925;41.874;12.526;2023-04-25T06:55:58;20.50;70.40
40538;DHT22;27925;41.874;12.526;2023-04-25T06:58:24;20.60;70.00
40538;DHT22;27925;41.874;12.526;2023-04-25T07:00:51;20.60;70.10
40538;DHT22;27925;41.874;12.526;2023-04-25T07:03:17;20.60;69.90
40538;DHT22;27925;41.874;12.526;2023-04-25T07:05:43;20.60;69.30
40538;DHT22;27925;41.874;12.526;2023-04-25T07:08:08;20.60;69.00
40538;DHT22;27925;41.874;12.526;2023-04-25T07:10:34;20.70;69.00
40538;DHT22;27925;41.874;12.526;2023-04-25T07:13:00;20.70;68.50
40538;DHT22;27925;41.874;12.526;2023-04-25T07:15:26;20.60;68.40
40538;DHT22;27925;41.874;12.526;2023-04-25T07:17:51;20.60;67.90
40538;DHT22;27925;41.874;12.526;2023-04-25T07:20:17;20.60;67.60
40538;DHT22;27925;41.874;12.526;2023-04-25T07:22:43;20.40;68.00
40538;DHT22;27925;41.874;12.526;2023-04-25T07:25:09;20.30;67.90
40538;DHT22;27925;41.874;12.526;2023-04-25T07:27:35;20.20;67.80
40538;DHT22;27925;41.874;12.526;2023-04-25T07:30:01;20.20;67.90
40538;DHT22;27925;41.874;12.526;2023-04-25T07:32:26;20.10;68.30
40538;DHT22;27925;41.874;12.526;2023-04-25T07:34:52;20.00;68.20
40538;DHT22;27925;41.874;12.526;2023-04-25T07:37:18;19.90;68.50
40538;DHT22;27925;41.874;12.526;2023-04-25T07:39:44;19.90;68.40
40538;DHT22;27925;41.874;12.526;2023-04-25T07:42:11;19.90;68.40
40538;DHT22;27925;41.874;12.526;2023-04-25T07:44:37;19.90;68.20
40538;DHT22;27925;41.874;12.526;2023-04-25T07:47:09;19.90;68.50
40538;DHT22;27925;41.874;12.526;2023-04-25T07:49:36;19.90;68.00
40538;DHT22;27925;41.874;12.526;2023-04-25T07:52:03;19.90;67.80
40538;DHT22;27925;41.874;12.526;2023-04-25T07:54:29;20.00;67.90
40538;DHT22;27925;41.874;12.526;2023-04-25T07:56:56;20.00;67.80
40538;DHT22;27925;41.874;12.526;2023-04-25T07:59:21;20.00;67.70
40538;DHT22;27925;41.874;12.526;2023-04-25T08:01:47;20.10;67.80
40538;DHT22;27925;41.874;12.526;2023-04-25T08:04:13;20.20;67.60
40538;DHT22;27925;41.874;12.526;2023-04-25T08:06:41;20.20;67.30
40538;DHT22;27925;41.874;12.526;2023-04-25T08:09:07;20.30;66.90
40538;DHT22;27925;41.874;12.526;2023-04-25T08:11:35;20.30;66.50
40538;DHT22;27925;41.874;12.526;2023-04-25T08:14:00;20.40;66.60
40538;DHT22;27925;41.874;12.526;2023-04-25T08:16:27;20.40;66.20
40538;DHT22;27925;41.874;12.526;2023-04-25T08:18:53;20.40;66.00
40538;DHT22;27925;41.874;12.526;2023-04-25T08:21:19;20.40;65.40
40538;DHT22;27925;41.874;12.526;2023-04-25T08:23:44;20.50;65.30
40538;DHT22;27925;41.874;12.526;2023-04-25T08:26:10;20.50;65.40
40538;DHT22;27925;41.874;12.526;2023-04-25T08:28:36;20.60;65.00
40538;DHT22;27925;41.874;12.526;2023-04-25T08:31:02;20.40;65.10
40538;DHT22;27925;41.874;12.526;2023-04-25T08:33:27;20.40;65.40
40538;DHT22;27925;41.874;12.526;2023-04-25T08:35:54;20.30;65.50
40538;DHT22;27925;41.874;12.526;2023-04-25T08:38:20;20.40;65.40
40538;DHT22;27925;41.874;12.526;2023-04-25T08:40:49;20.40;65.10
40538;DHT22;27925;41.874;12.526;2023-04-25T08:43:19;20.40;65.10
40538;DHT22;27925;41.874;12.526;2023-04-25T08:45:45;20.40;65.40
40538;DHT22;27925;41.874;12.526;2023-04-25T08:48:13;20.40;64.90
40538;DHT22;27925;41.874;12.526;2023-04-25T08:50:50;20.40;65.00
40538;DHT22;27925;41.874;12.526;2023-04-25T08:53:17;20.40;64.70
40538;DHT22;27925;41.874;12.526;2023-04-25T08:55:47;20.50;64.70
40538;DHT22;27925;41.874;12.526;2023-04-25T08:58:14;20.50;64.50
40538;DHT22;27925;41.874;12.526;2023-04-25T09:00:40;20.60;64.20
40538;DHT22;27925;41.874;12.526;2023-04-25T09:03:06;20.70;64.00
40538;DHT22;27925;41.874;12.526;2023-04-25T09:05:35;20.80;63.60
40538;DHT22;27925;41.874;12.526;2023-04-25T09:08:02;20.80;63.30
40538;DHT22;27925;41.874;12.526;2023-04-25T09:10:28;20.80;63.40
40538;DHT22;27925;41.874;12.526;2023-04-25T09:13:08;20.80;63.30
40538;DHT22;27925;41.874;12.526;2023-04-25T09:15:47;20.80;63.40
40538;DHT22;27925;41.874;12.526;2023-04-25T09:18:22;20.80;63.00
40538;DHT22;27925;41.874;12.526;2023-04-25T09:20:48;20.80;62.80
40538;DHT22;27925;41.874;12.526;2023-04-25T09:23:14;20.80;62.60
40538;DHT22;27925;41.874;12.526;2023-04-25T09:25:40;20.70;62.50
40538;DHT22;27925;41.874;12.526;2023-04-25T09:28:08;20.70;62.20
40538;DHT22;27925;41.874;12.526;2023-04-25T09:30:36;20.70;62.40
40538;DHT22;27925;41.874;12.526;2023-04-25T09:33:09;20.70;62.10
40538;DHT22;27925;41.874;12.526;2023-04-25T09:35:53;20.70;61.60
40538;DHT22;27925;41.874;12.526;2023-04-25T09:38:21;20.60;61.40
40538;DHT22;27925;41.874;12.526;2023-04-25T09:40:47;20.70;62.10
40538;DHT22;27925;41.874;12.526;2023-04-25T09:43:20;20.70;62.10
40538;DHT22;27925;41.874;12.526;2023-04-25T09:45:46;20.70;61.60
40538;DHT22;27925;41.874;12.526;2023-04-25T09:48:21;20.70;60.80
40538;DHT22;27925;41.874;12.526;2023-04-25T09:53:35;20.80;60.60
40538;DHT22;27925;41.874;12.526;2023-04-25T09:56:05;20.80;61.00
40538;DHT22;27925;41.874;12.526;2023-04-25T09:58:32;20.90;60.50
40538;DHT22;27925;41.874;12.526;2023-04-25T10:01:00;20.90;59.40
40538;DHT22;27925;41.874;12.526;2023-04-25T10:03:30;21.00;58.90
40538;DHT22;27925;41.874;12.526;2023-04-25T10:05:59;21.00;58.90
40538;DHT22;27925;41.874;12.526;2023-04-25T10:08:27;21.00;58.70
40538;DHT22;27925;41.874;12.526;2023-04-25T10:10:55;21.10;58.50
40538;DHT22;27925;41.874;12.526;2023-04-25T10:13:21;21.20;58.20
40538;DHT22;27925;41.874;12.526;2023-04-25T10:15:48;21.30;58.00
40538;DHT22;27925;41.874;12.526;2023-04-25T10:18:14;21.50;57.50
40538;DHT22;27925;41.874;12.526;2023-04-25T10:20:40;21.60;57.40
40538;DHT22;27925;41.874;12.526;2023-04-25T10:23:13;21.60;58.00
40538;DHT22;27925;41.874;12.526;2023-04-25T10:25:40;21.70;57.10
40538;DHT22;27925;41.874;12.526;2023-04-25T10:28:06;21.80;56.90
40538;DHT22;27925;41.874;12.526;2023-04-25T10:30:32;21.90;57.10
40538;DHT22;27925;41.874;12.526;2023-04-25T10:32:59;21.90;56.60
40538;DHT22;27925;41.874;12.526;2023-04-25T10:35:29;22.10;56.50
40538;DHT22;27925;41.874;12.526;2023-04-25T10:38:11;22.10;56.30
40538;DHT22;27925;41.874;12.526;2023-04-25T10:40:38;22.10;55.30
40538;DHT22;27925;41.874;12.526;2023-04-25T10:46:28;22.30;55.40
40538;DHT22;27925;41.874;12.526;2023-04-25T10:48:59;22.50;54.80
40538;DHT22;27925;41.874;12.526;2023-04-25T10:51:35;22.60;55.00
40538;DHT22;27925;41.874;12.526;2023-04-25T10:54:06;22.90;55.10
40538;DHT22;27925;41.874;12.526;2023-04-25T10:56:35;23.00;54.80
40538;DHT22;27925;41.874;12.526;2023-04-25T10:59:16;23.10;54.60
40538;DHT22;27925;41.874;12.526;2023-04-25T11:01:43;23.10;54.50
40538;DHT22;27925;41.874;12.526;2023-04-25T11:04:22;23.10;54.60
40538;DHT22;27925;41.874;12.526;2023-04-25T11:09:29;23.30;54.40
40538;DHT22;27925;41.874;12.526;2023-04-25T11:11:59;23.40;54.70
40538;DHT22;27925;41.874;12.526;2023-04-25T11:14:26;23.40;54.50
40538;DHT22;27925;41.874;12.526;2023-04-25T11:16:59;23.50;54.70
40538;DHT22;27925;41.874;12.526;2023-04-25T11:19:26;23.40;54.40
40538;DHT22;27925;41.874;12.526;2023-04-25T11:22:00;23.40;54.70
40538;DHT22;27925;41.874;12.526;2023-04-25T11:24:29;23.40;54.70
40538;DHT22;27925;41.874;12.526;2023-04-25T11:26:57;23.40;54.00
40538;DHT22;27925;41.874;12.526;2023-04-25T11:29:26;23.50;55.00
40538;DHT22;27925;41.874;12.526;2023-04-25T11:31:53;23.40;54.50
40538;DHT22;27925;41.874;12.526;2023-04-25T11:34:19;23.40;55.00
40538;DHT22;27925;41.874;12.526;2023-04-25T11:36:45;23.50;55.00
40538;DHT22;27925;41.874;12.526;2023-04-25T11:39:12;23.40;54.60
40538;DHT22;27925;41.874;12.526;2023-04-25T11:41:38;23.40;54.90
40538;DHT22;27925;41.874;12.526;2023-04-25T11:44:05;23.30;55.00
40538;DHT22;27925;41.874;12.526;2023-04-25T11:46:33;23.30;55.10
40538;DHT22;27925;41.874;12.526;2023-04-25T11:49:00;23.20;55.20
40538;DHT22;27925;41.874;12.526;2023-04-25T11:51:25;23.30;55.10
40538;DHT22;27925;41.874;12.526;2023-04-25T11:53:51;23.30;55.30
40538;DHT22;27925;41.874;12.526;2023-04-25T11:56:17;23.40;56.10
40538;DHT22;27925;41.874;12.526;2023-04-25T12:01:32;23.50;55.10
40538;DHT22;27925;41.874;12.526;2023-04-25T12:04:16;23.60;53.40
40538;DHT22;27925;41.874;12.526;2023-04-25T12:06:44;23.60;53.20
40538;DHT22;27925;41.874;12.526;2023-04-25T12:09:13;23.50;53.90
40538;DHT22;27925;41.874;12.526;2023-04-25T12:11:53;23.40;53.40
40538;DHT22;27925;41.874;12.526;2023-04-25T12:14:27;23.40;54.00
40538;DHT22;27925;41.874;12.526;2023-04-25T12:16:58;23.40;53.50
40538;DHT22;27925;41.874;12.526;2023-04-25T12:19:25;23.40;52.60
40538;DHT22;27925;41.874;12.526;2023-04-25T12:21:52;23.40;52.60
40538;DHT22;27925;41.874;12.526;2023-04-25T12:24:22;23.50;52.30
40538;DHT22;27925;41.874;12.526;2023-04-25T12:27:05;23.50;53.00
40538;DHT22;27925;41.874;12.526;2023-04-25T12:29:32;23.60;53.40
40538;DHT22;27925;41.874;12.526;2023-04-25T12:31:58;23.60;54.00
40538;DHT22;27925;41.874;12.526;2023-04-25T12:34:25;23.60;54.20
40538;DHT22;27925;41.874;12.526;2023-04-25T12:36:51;23.70;54.00
40538;DHT22;27925;41.874;12.526;2023-04-25T12:39:21;23.90;54.40
40538;DHT22;27925;41.874;12.526;2023-04-25T12:41:48;24.10;54.00
40538;DHT22;27925;41.874;12.526;2023-04-25T12:44:14;24.00;52.90
40538;DHT22;27925;41.874;12.526;2023-04-25T12:46:41;23.90;52.10
40538;DHT22;27925;41.874;12.526;2023-04-25T12:49:07;23.90;52.40
40538;DHT22;27925;41.874;12.526;2023-04-25T12:51:37;23.90;52.30
40538;DHT22;27925;41.874;12.526;2023-04-25T12:54:04;23.80;51.90
40538;DHT22;27925;41.874;12.526;2023-04-25T12:56:30;23.70;53.60
40538;DHT22;27925;41.874;12.526;2023-04-25T12:58:57;23.60;53.30
40538;DHT22;27925;41.874;12.526;2023-04-25T13:01:23;23.70;53.50
40538;DHT22;27925;41.874;12.526;2023-04-25T13:03:50;23.70;53.50
40538;DHT22;27925;41.874;12.526;2023-04-25T13:06:16;23.70;53.40
40538;DHT22;27925;41.874;12.526;2023-04-25T13:08:42;23.80;53.40
40538;DHT22;27925;41.874;12.526;2023-04-25T13:11:08;24.00;52.90
40538;DHT22;27925;41.874;12.526;2023-04-25T13:13:34;24.00;51.50
40538;DHT22;27925;41.874;12.526;2023-04-25T13:16:01;23.90;51.10
40538;DHT22;27925;41.874;12.526;2023-04-25T13:18:33;23.80;52.70
40538;DHT22;27925;41.874;12.526;2023-04-25T13:20:59;23.80;52.50
40538;DHT22;27925;41.874;12.526;2023-04-25T13:23:26;23.90;52.20
40538;DHT22;27925;41.874;12.526;2023-04-25T13:25:52;23.90;52.40
40538;DHT22;27925;41.874;12.526;2023-04-25T13:28:18;23.90;52.20
40538;DHT22;27925;41.874;12.526;2023-04-25T13:30:44;24.00;51.80
40538;DHT22;27925;41.874;12.526;2023-04-25T13:33:11;23.90;51.80
40538;DHT22;27925;41.874;12.526;2023-04-25T13:35:37;23.90;51.30
40538;DHT22;27925;41.874;12.526;2023-04-25T13:38:03;23.90;51.80
40538;DHT22;27925;41.874;12.526;2023-04-25T13:40:29;23.90;51.80
40538;DHT22;27925;41.874;12.526;2023-04-25T13:42:55;24.00;52.00
40538;DHT22;27925;41.874;12.526;2023-04-25T13:45:21;24.10;51.40
40538;DHT22;27925;41.874;12.526;2023-04-25T13:47:47;24.00;51.30
40538;DHT22;27925;41.874;12.526;2023-04-25T13:50:14;24.00;51.00
40538;DHT22;27925;41.874;12.526;2023-04-25T13:52:41;24.00;50.40
40538;DHT22;27925;41.874;12.526;2023-04-25T13:55:07;24.00;51.70
40538;DHT22;27925;41.874;12.526;2023-04-25T13:57:34;24.00;51.40
40538;DHT22;27925;41.874;12.526;2023-04-25T14:00:00;24.10;51.40
40538;DHT22;27925;41.874;12.526;2023-04-25T14:02:30;24.10;51.40
40538;DHT22;27925;41.874;12.526;2023-04-25T14:04:56;24.10;51.40
40538;DHT22;27925;41.874;12.526;2023-04-25T14:07:21;24.10;51.20
40538;DHT22;27925;41.874;12.526;2023-04-25T14:09:47;24.10;50.10
40538;DHT22;27925;41.874;12.526;2023-04-25T14:12:13;24.10;50.20
40538;DHT22;27925;41.874;12.526;2023-04-25T14:14:38;24.00;49.40
40538;DHT22;27925;41.874;12.526;2023-04-25T14:17:04;24.00;51.30
40538;DHT22;27925;41.874;12.526;2023-04-25T14:19:30;24.00;51.00
40538;DHT22;27925;41.874;12.526;2023-04-25T14:21:56;24.00;50.80
40538;DHT22;27925;41.874;12.526;2023-04-25T14:24:21;24.00;49.90
40538;DHT22;27925;41.874;12.526;2023-04-25T14:26:47;24.00;49.90
40538;DHT22;27925;41.874;12.526;2023-04-25T14:29:13;24.00;49.60
40538;DHT22;27925;41.874;12.526;2023-04-25T14:31:39;24.10;50.00
40538;DHT22;27925;41.874;12.526;2023-04-25T14:34:05;24.10;50.60
40538;DHT22;27925;41.874;12.526;2023-04-25T14:36:32;24.10;51.20
40538;DHT22;27925;41.874;12.526;2023-04-25T14:38:58;24.10;51.60
40538;DHT22;27925;41.874;12.526;2023-04-25T14:41:25;24.10;51.70
40538;DHT22;27925;41.874;12.526;2023-04-25T14:43:51;24.20;52.00
40538;DHT22;27925;41.874;12.526;2023-04-25T14:46:18;24.10;52.00
40538;DHT22;27925;41.874;12.526;2023-04-25T14:48:44;24.10;51.60
40538;DHT22;27925;41.874;12.526;2023-04-25T14:51:10;24.10;50.60
40538;DHT22;27925;41.874;12.526;2023-04-25T14:53:36;24.00;50.10
40538;DHT22;27925;41.874;12.526;2023-04-25T14:56:02;24.00;49.40
40538;DHT22;27925;41.874;12.526;2023-04-25T14:58:28;24.00;49.50
40538;DHT22;27925;41.874;12.526;2023-04-25T15:00:53;24.00;49.70
40538;DHT22;27925;41.874;12.526;2023-04-25T15:03:19;24.00;50.00
40538;DHT22;27925;41.874;12.526;2023-04-25T15:05:45;24.00;50.30
40538;DHT22;27925;41.874;12.526;2023-04-25T15:08:10;24.00;50.70
40538;DHT22;27925;41.874;12.526;2023-04-25T15:10:36;24.10;51.10
40538;DHT22;27925;41.874;12.526;2023-04-25T15:13:03;24.10;51.00
40538;DHT22;27925;41.874;12.526;2023-04-25T15:15:29;24.10;51.00
40538;DHT22;27925;41.874;12.526;2023-04-25T15:17:55;24.10;51.10
40538;DHT22;27925;41.874;12.526;2023-04-25T15:20:21;24.10;51.70
40538;DHT22;27925;41.874;12.526;2023-04-25T15:22:47;24.10;51.90
40538;DHT22;27925;41.874;12.526;2023-04-25T15:25:14;24.10;52.50